createdAt,value
2023-05-07T00:01:22.191Z,20.93
2023-05-07T00:03:52.879Z,20.93
2023-05-07T00:06:30.225Z,20.92
2023-05-07T00:09:03.960Z,20.90
2023-05-07T00:11:31.360Z,20.91
2023-05-07T00:14:01.485Z,20.91
2023-05-07T00:16:34.433Z,20.91
2023-05-07T00:19:06.434Z,20.90
2023-05-07T00:21:36.812Z,20.91
2023-05-07T00:24:04.883Z,20.89
2023-05-07T00:26:33.700Z,20.91
2023-05-07T00:29:03.423Z,20.88
2023-05-07T00:31:31.269Z,20.89
2023-05-07T00:34:05.034Z,20.88
2023-05-07T00:36:35.848Z,20.85
2023-05-07T00:39:07.795Z,20.86
2023-05-07T00:41:38.290Z,20.86
2023-05-07T00:44:11.836Z,20.86
2023-05-07T00:46:40.122Z,20.85
2023-05-07T00:49:15.506Z,20.83
2023-05-07T00:51:43.129Z,20.81
2023-05-07T00:54:18.246Z,20.84
2023-05-07T00:56:48.620Z,20.85
2023-05-07T00:59:21.222Z,20.84
2023-05-07T01:01:51.222Z,20.84
2023-05-07T01:04:22.144Z,20.84
2023-05-07T01:06:53.212Z,20.83
2023-05-07T01:09:21.698Z,20.82
2023-05-07T01:11:49.935Z,20.82
2023-05-07T01:14:24.387Z,20.81
2023-05-07T01:16:55.190Z,20.81
2023-05-07T01:19:26.837Z,20.80
2023-05-07T01:22:02.789Z,20.81
2023-05-07T01:24:37.375Z,20.80
2023-05-07T01:27:04.678Z,20.79
2023-05-07T01:29:38.012Z,20.78
2023-05-07T01:32:09.328Z,20.79
2023-05-07T01:34:40.999Z,20.79
2023-05-07T01:37:11.161Z,20.79
2023-05-07T01:39:41.249Z,20.79
2023-05-07T01:42:09.120Z,20.78
2023-05-07T01:44:39.690Z,20.78
2023-05-07T01:47:17.164Z,20.78
2023-05-07T01:49:48.516Z,20.77
2023-05-07T01:52:17.961Z,20.77
2023-05-07T01:54:53.385Z,20.77
2023-05-07T01:57:22.229Z,20.77
2023-05-07T01:59:51.533Z,20.76
2023-05-07T02:02:18.684Z,20.76
2023-05-07T02:04:52.968Z,20.76
2023-05-07T02:07:20.591Z,20.76
2023-05-07T02:09:47.903Z,20.76
2023-05-07T02:12:19.965Z,20.75
2023-05-07T02:14:49.123Z,20.75
2023-05-07T02:17:25.208Z,20.75
2023-05-07T02:19:55.207Z,20.75
2023-05-07T02:22:23.984Z,20.75
2023-05-07T02:24:51.145Z,20.73
2023-05-07T02:27:21.665Z,20.74
2023-05-07T02:29:50.006Z,20.73
2023-05-07T02:32:23.006Z,20.74
2023-05-07T02:34:51.935Z,20.74
2023-05-07T02:37:21.961Z,20.73
2023-05-07T02:39:52.514Z,20.72
2023-05-07T02:42:25.326Z,20.70
2023-05-07T02:44:53.069Z,20.72
2023-05-07T02:47:23.000Z,20.72
2023-05-07T02:49:57.118Z,20.70
2023-05-07T02:52:24.682Z,20.70
2023-05-07T02:54:54.809Z,20.69
2023-05-07T02:57:23.301Z,20.69
2023-05-07T02:59:53.786Z,20.71
2023-05-07T03:02:30.184Z,20.71
2023-05-07T03:05:03.745Z,20.70
2023-05-07T03:07:34.006Z,20.71
2023-05-07T03:10:01.406Z,20.70
2023-05-07T03:12:31.713Z,20.67
2023-05-07T03:15:03.974Z,20.68
2023-05-07T03:17:33.457Z,20.69
2023-05-07T03:20:00.584Z,20.68
2023-05-07T03:22:30.896Z,20.68
2023-05-07T03:25:09.271Z,20.68
2023-05-07T03:27:37.198Z,20.67
2023-05-07T03:30:10.339Z,20.67
2023-05-07T03:32:44.370Z,20.66
2023-05-07T03:35:13.576Z,20.66
2023-05-07T03:37:47.217Z,20.67
2023-05-07T03:40:17.769Z,20.65
2023-05-07T03:42:48.222Z,20.66
2023-05-07T03:45:18.985Z,20.64
2023-05-07T03:47:50.380Z,20.64
2023-05-07T03:50:23.206Z,20.64
2023-05-07T03:52:57.654Z,20.65
2023-05-07T03:55:30.390Z,20.65
2023-05-07T03:58:04.165Z,20.63
2023-05-07T04:00:37.113Z,20.63
2023-05-07T04:03:06.772Z,20.63
2023-05-07T04:05:38.665Z,20.61
2023-05-07T04:08:07.020Z,20.61
2023-05-07T04:10:40.135Z,20.61
2023-05-07T04:13:11.415Z,20.62
2023-05-07T04:15:45.162Z,20.63
2023-05-07T04:18:15.470Z,20.61
2023-05-07T04:20:49.057Z,20.62
2023-05-07T04:23:16.432Z,20.61
2023-05-07T04:25:49.804Z,20.63
2023-05-07T04:28:16.967Z,20.61
2023-05-07T04:30:44.590Z,20.62
2023-05-07T04:33:17.567Z,20.61
2023-05-07T04:35:47.484Z,20.61
2023-05-07T04:38:14.928Z,20.61
2023-05-07T04:40:44.826Z,20.57
2023-05-07T04:43:15.136Z,20.58
2023-05-07T04:45:42.563Z,20.56
2023-05-07T04:48:12.915Z,20.57
2023-05-07T04:50:43.604Z,20.57
2023-05-07T04:53:17.010Z,20.56
2023-05-07T04:55:45.005Z,20.56
2023-05-07T04:58:12.466Z,20.58
2023-05-07T05:00:45.736Z,20.59
2023-05-07T05:03:15.862Z,20.58
2023-05-07T05:05:46.553Z,20.57
2023-05-07T05:08:13.613Z,20.59
2023-05-07T05:10:44.159Z,20.62
2023-05-07T05:13:14.523Z,20.65
2023-05-07T05:15:50.411Z,20.67
2023-05-07T05:18:19.745Z,20.70
2023-05-07T05:20:46.592Z,20.72
2023-05-07T05:23:13.458Z,20.74
2023-05-07T05:25:40.952Z,20.78
2023-05-07T05:28:12.617Z,20.83
2023-05-07T05:30:40.716Z,20.86
2023-05-07T05:33:10.636Z,20.89
2023-05-07T05:35:43.794Z,20.88
2023-05-07T05:38:17.570Z,20.84
2023-05-07T05:40:45.132Z,20.86
2023-05-07T05:43:18.874Z,20.87
2023-05-07T05:45:49.374Z,20.79
2023-05-07T05:48:21.692Z,20.73
2023-05-07T05:50:51.364Z,20.83
2023-05-07T05:53:18.111Z,20.69
2023-05-07T05:55:50.669Z,20.67
2023-05-07T05:58:17.561Z,20.68
2023-05-07T06:00:47.372Z,20.74
2023-05-07T06:03:14.612Z,20.83
2023-05-07T06:05:42.173Z,20.86
2023-05-07T06:08:18.620Z,20.89
2023-05-07T06:10:47.399Z,20.93
2023-05-07T06:13:17.259Z,20.95
2023-05-07T06:15:44.745Z,20.95
2023-05-07T06:18:21.624Z,20.97
2023-05-07T06:20:56.417Z,20.93
2023-05-07T06:23:24.296Z,20.95
2023-05-07T06:25:55.226Z,20.98
2023-05-07T06:28:25.937Z,20.89
2023-05-07T06:30:52.876Z,20.93
2023-05-07T06:33:19.663Z,20.91
2023-05-07T06:35:47.052Z,20.89
2023-05-07T06:38:16.508Z,20.92
2023-05-07T06:40:46.737Z,20.91
2023-05-07T06:43:17.452Z,20.91
2023-05-07T06:45:46.088Z,20.91
2023-05-07T06:48:12.909Z,20.94
2023-05-07T06:50:39.900Z,20.95
2023-05-07T06:53:06.738Z,20.96
2023-05-07T06:55:33.552Z,20.95
2023-05-07T06:58:03.873Z,20.96
2023-05-07T07:00:33.393Z,20.97
2023-05-07T07:03:07.795Z,20.98
2023-05-07T07:05:34.682Z,20.97
2023-05-07T07:08:14.885Z,20.95
2023-05-07T07:10:45.450Z,20.96
2023-05-07T07:13:15.648Z,20.95
2023-05-07T07:15:46.138Z,20.96
2023-05-07T07:18:13.163Z,20.90
2023-05-07T07:20:40.717Z,20.95
2023-05-07T07:23:07.926Z,20.93
2023-05-07T07:25:37.850Z,20.94
2023-05-07T07:28:07.066Z,20.95
2023-05-07T07:30:42.033Z,20.99
2023-05-07T07:33:15.560Z,21.01
2023-05-07T07:35:42.215Z,21.00
2023-05-07T07:38:12.926Z,20.99
2023-05-07T07:40:40.222Z,21.04
2023-05-07T07:43:09.749Z,21.03
2023-05-07T07:45:42.603Z,21.08
2023-05-07T07:48:14.987Z,21.06
2023-05-07T07:50:46.263Z,21.11
2023-05-07T07:53:19.017Z,21.08
2023-05-07T07:55:45.971Z,21.11
2023-05-07T07:58:12.957Z,21.09
2023-05-07T08:00:48.379Z,21.11
2023-05-07T08:03:15.699Z,21.11
2023-05-07T08:05:48.926Z,21.13
2023-05-07T08:08:23.114Z,21.08
2023-05-07T08:10:53.018Z,21.08
2023-05-07T08:13:24.205Z,21.08
2023-05-07T08:15:51.139Z,21.08
2023-05-07T08:18:18.422Z,21.07
2023-05-07T08:20:51.151Z,21.08
2023-05-07T08:23:23.838Z,21.08
2023-05-07T08:25:55.757Z,21.07
2023-05-07T08:28:26.763Z,21.09
2023-05-07T08:30:56.636Z,21.06
2023-05-07T08:33:23.754Z,21.05
2023-05-07T08:35:52.067Z,21.09
2023-05-07T08:38:19.970Z,21.07
2023-05-07T08:40:46.849Z,21.09
2023-05-07T08:43:19.614Z,21.13
2023-05-07T08:45:50.876Z,21.13
2023-05-07T08:48:22.961Z,21.21
2023-05-07T08:50:53.376Z,21.20
2023-05-07T08:53:23.337Z,21.24
2023-05-07T08:55:53.372Z,21.26
2023-05-07T08:58:26.901Z,21.26
2023-05-07T09:01:00.109Z,21.27
2023-05-07T09:03:27.064Z,21.25
2023-05-07T09:06:01.487Z,21.25
2023-05-07T09:08:34.487Z,21.24
2023-05-07T09:11:10.377Z,21.26
2023-05-07T09:13:37.415Z,21.29
2023-05-07T09:16:20.228Z,21.28
2023-05-07T09:18:53.753Z,21.26
2023-05-07T09:21:26.246Z,21.31
2023-05-07T09:23:57.349Z,21.26
2023-05-07T09:26:30.418Z,21.27
2023-05-07T09:29:01.547Z,21.26
2023-05-07T09:31:31.898Z,21.27
2023-05-07T09:34:02.279Z,21.27
2023-05-07T09:36:39.129Z,21.27
2023-05-07T09:39:06.609Z,21.27
2023-05-07T09:41:50.516Z,21.26
2023-05-07T09:44:19.615Z,21.24
2023-05-07T09:46:58.030Z,21.24
2023-05-07T09:49:29.272Z,21.24
2023-05-07T09:52:07.070Z,21.22
2023-05-07T09:54:45.730Z,21.21
2023-05-07T09:57:30.093Z,21.24
2023-05-07T10:00:03.772Z,21.23
2023-05-07T10:02:38.716Z,21.22
2023-05-07T10:05:11.383Z,21.21
2023-05-07T10:07:41.440Z,21.24
2023-05-07T10:10:08.570Z,21.24
2023-05-07T10:12:36.064Z,21.24
2023-05-07T10:15:03.112Z,21.25
2023-05-07T10:17:33.497Z,21.25
2023-05-07T10:20:00.958Z,21.25
2023-05-07T10:22:30.485Z,21.25
2023-05-07T10:25:06.582Z,21.28
2023-05-07T10:27:38.173Z,21.24
2023-05-07T10:30:11.027Z,21.28
2023-05-07T10:32:47.430Z,21.30
2023-05-07T10:35:26.710Z,21.31
2023-05-07T10:37:58.233Z,21.32
2023-05-07T10:40:32.163Z,21.39
2023-05-07T10:43:10.543Z,21.41
2023-05-07T10:45:47.492Z,21.43
2023-05-07T10:48:30.074Z,21.47
2023-05-07T10:51:16.802Z,21.51
2023-05-07T10:53:46.220Z,21.50
2023-05-07T10:56:22.230Z,21.52
2023-05-07T10:58:54.401Z,21.55
2023-05-07T11:01:51.173Z,21.54
2023-05-07T11:04:21.879Z,21.55
2023-05-07T11:07:10.768Z,21.54
2023-05-07T11:09:57.013Z,21.53
2023-05-07T11:12:42.337Z,21.52
2023-05-07T11:15:18.353Z,21.53
2023-05-07T11:17:59.014Z,21.53
2023-05-07T11:21:05.905Z,21.44
2023-05-07T11:23:36.502Z,21.50
2023-05-07T11:26:05.833Z,21.53
2023-05-07T11:28:40.051Z,21.54
2023-05-07T11:31:14.285Z,21.53
2023-05-07T11:33:44.963Z,21.58
2023-05-07T11:36:16.448Z,21.59
2023-05-07T11:38:46.805Z,21.60
2023-05-07T11:41:16.485Z,21.64
2023-05-07T11:44:01.888Z,21.67
2023-05-07T11:46:39.784Z,21.66
2023-05-07T11:49:10.386Z,21.68
2023-05-07T11:51:44.015Z,21.64
2023-05-07T11:54:13.936Z,21.68
2023-05-07T11:56:40.552Z,21.60
2023-05-07T11:59:07.383Z,21.67
2023-05-07T12:01:36.413Z,21.70
2023-05-07T12:04:04.678Z,21.70
2023-05-07T12:06:41.091Z,21.71
2023-05-07T12:09:08.312Z,21.72
2023-05-07T12:11:45.760Z,21.76
2023-05-07T12:14:14.302Z,21.77
2023-05-07T12:16:46.741Z,21.83
2023-05-07T12:19:22.105Z,21.80
2023-05-07T12:21:49.498Z,21.80
2023-05-07T12:24:16.610Z,21.85
2023-05-07T12:26:46.752Z,21.84
2023-05-07T12:29:19.204Z,21.83
2023-05-07T12:31:50.407Z,21.82
2023-05-07T12:34:17.584Z,21.84
2023-05-07T12:36:45.340Z,21.84
2023-05-07T12:39:15.480Z,21.81
2023-05-07T12:41:59.076Z,21.77
2023-05-07T12:44:35.751Z,21.78
2023-05-07T12:47:06.015Z,21.74
2023-05-07T12:49:32.930Z,21.74
2023-05-07T12:52:02.923Z,21.75
2023-05-07T12:54:30.935Z,21.76
2023-05-07T12:57:05.952Z,21.74
2023-05-07T12:59:43.421Z,21.73
2023-05-07T13:02:12.546Z,21.68
2023-05-07T13:04:45.728Z,21.76
2023-05-07T13:07:16.255Z,21.78
2023-05-07T13:09:46.944Z,21.77
2023-05-07T13:12:21.748Z,21.78
2023-05-07T13:14:51.718Z,21.76
2023-05-07T13:17:21.834Z,21.77
2023-05-07T13:19:58.030Z,21.76
2023-05-07T13:22:33.352Z,21.76
2023-05-07T13:25:03.150Z,21.74
2023-05-07T13:27:33.083Z,21.74
2023-05-07T13:30:06.754Z,21.74
2023-05-07T13:32:37.187Z,21.73
2023-05-07T13:35:07.511Z,21.75
2023-05-07T13:37:34.643Z,21.76
2023-05-07T13:40:05.359Z,21.76
2023-05-07T13:42:35.563Z,21.76
2023-05-07T13:45:06.999Z,21.81
2023-05-07T13:47:47.801Z,21.82
2023-05-07T13:50:18.340Z,21.83
2023-05-07T13:52:48.277Z,21.84
2023-05-07T13:55:15.999Z,21.84
2023-05-07T13:57:47.865Z,21.87
2023-05-07T14:00:16.079Z,21.86
2023-05-07T14:02:50.212Z,21.86
2023-05-07T14:05:24.612Z,21.83
2023-05-07T14:07:53.206Z,21.82
2023-05-07T14:10:29.203Z,21.80
2023-05-07T14:13:04.287Z,21.78
2023-05-07T14:15:36.696Z,21.78
2023-05-07T14:18:05.076Z,21.77
2023-05-07T14:20:39.772Z,21.80
2023-05-07T14:23:13.192Z,21.77
2023-05-07T14:25:46.501Z,21.71
2023-05-07T14:28:21.774Z,21.70
2023-05-07T14:30:54.650Z,21.70
2023-05-07T14:33:24.867Z,21.69
2023-05-07T14:35:58.421Z,21.67
2023-05-07T14:38:28.309Z,21.63
2023-05-07T14:41:06.111Z,21.62
2023-05-07T14:43:39.206Z,21.60
2023-05-07T14:46:09.201Z,21.55
2023-05-07T14:48:48.515Z,21.52
2023-05-07T14:51:26.263Z,21.50
2023-05-07T14:53:59.176Z,21.45
2023-05-07T14:56:31.341Z,21.47
2023-05-07T14:59:04.780Z,21.47
2023-05-07T15:01:34.215Z,21.50
2023-05-07T15:04:01.430Z,21.48
2023-05-07T15:06:34.483Z,21.48
2023-05-07T15:09:12.356Z,21.45
2023-05-07T15:11:39.087Z,21.46
2023-05-07T15:14:15.602Z,21.43
2023-05-07T15:16:47.361Z,21.41
2023-05-07T15:19:20.477Z,21.42
2023-05-07T15:21:50.632Z,21.43
2023-05-07T15:24:17.611Z,21.44
2023-05-07T15:26:49.778Z,21.44
2023-05-07T15:29:20.260Z,21.40
2023-05-07T15:31:50.651Z,21.39
2023-05-07T15:34:21.228Z,21.39
2023-05-07T15:36:50.628Z,21.37
2023-05-07T15:39:25.161Z,21.34
2023-05-07T15:41:54.516Z,21.32
2023-05-07T15:44:28.498Z,21.35
2023-05-07T15:46:58.422Z,21.34
2023-05-07T15:49:32.538Z,21.34
2023-05-07T15:52:02.006Z,21.32
2023-05-07T15:54:33.069Z,21.34
2023-05-07T15:57:04.345Z,21.29
2023-05-07T15:59:36.236Z,21.29
2023-05-07T16:02:03.267Z,21.28
2023-05-07T16:04:38.795Z,21.28
2023-05-07T16:07:05.812Z,21.24
2023-05-07T16:09:39.277Z,21.24
2023-05-07T16:12:09.068Z,21.25
2023-05-07T16:14:41.712Z,21.24
2023-05-07T16:17:09.426Z,21.24
2023-05-07T16:19:44.426Z,21.20
2023-05-07T16:22:22.055Z,21.24
2023-05-07T16:24:52.000Z,21.19
2023-05-07T16:27:24.442Z,21.18
2023-05-07T16:29:51.219Z,21.18
2023-05-07T16:32:25.850Z,21.18
2023-05-07T16:34:52.705Z,21.17
2023-05-07T16:37:29.594Z,21.14
2023-05-07T16:40:10.898Z,21.12
2023-05-07T16:42:37.802Z,21.15
2023-05-07T16:45:08.505Z,21.12
2023-05-07T16:47:44.758Z,21.10
2023-05-07T16:50:17.706Z,21.09
2023-05-07T16:52:53.721Z,21.15
2023-05-07T16:55:20.883Z,21.11
2023-05-07T16:57:51.347Z,21.07
2023-05-07T17:00:18.389Z,21.07
2023-05-07T17:02:47.846Z,21.11
2023-05-07T17:05:20.755Z,21.06
2023-05-07T17:07:47.588Z,21.06
2023-05-07T17:10:20.783Z,21.05
2023-05-07T17:12:50.558Z,21.06
2023-05-07T17:15:21.138Z,21.05
2023-05-07T17:17:54.725Z,21.06
2023-05-07T17:20:30.216Z,21.03
2023-05-07T17:23:06.001Z,21.01
2023-05-07T17:25:37.247Z,21.01
2023-05-07T17:28:12.684Z,21.00
2023-05-07T17:30:46.166Z,21.02
2023-05-07T17:33:21.548Z,21.01
2023-05-07T17:35:55.468Z,20.98
2023-05-07T17:38:27.622Z,21.00
2023-05-07T17:40:57.203Z,20.98
2023-05-07T17:43:32.856Z,20.98
2023-05-07T17:46:00.655Z,20.97
2023-05-07T17:48:29.181Z,21.00
2023-05-07T17:51:06.575Z,21.05
2023-05-07T17:53:37.215Z,21.09
2023-05-07T17:56:10.698Z,21.11
2023-05-07T17:58:58.048Z,21.15
2023-05-07T18:01:36.456Z,21.16
2023-05-07T18:04:13.398Z,21.18
2023-05-07T18:06:40.628Z,21.21
2023-05-07T18:09:15.070Z,21.21
2023-05-07T18:11:48.991Z,21.22
2023-05-07T18:14:19.049Z,21.20
2023-05-07T18:16:53.342Z,21.22
2023-05-07T18:19:23.054Z,21.23
2023-05-07T18:21:55.352Z,21.22
2023-05-07T18:24:25.349Z,21.24
2023-05-07T18:26:59.007Z,21.22
2023-05-07T18:29:29.837Z,21.24
2023-05-07T18:32:01.537Z,21.22
2023-05-07T18:34:35.884Z,21.18
2023-05-07T18:37:11.205Z,21.20
2023-05-07T18:39:47.719Z,21.19
2023-05-07T18:42:20.662Z,21.18
2023-05-07T18:44:49.700Z,21.19
2023-05-07T18:47:24.229Z,21.17
2023-05-07T18:49:54.314Z,21.16
2023-05-07T18:52:27.161Z,21.16
2023-05-07T18:54:54.267Z,21.16
2023-05-07T18:57:24.568Z,21.18
2023-05-07T18:59:57.351Z,21.18
2023-05-07T19:02:28.882Z,21.17
2023-05-07T19:05:02.239Z,21.16
2023-05-07T19:07:32.782Z,21.15
2023-05-07T19:10:19.213Z,21.14
2023-05-07T19:12:47.454Z,21.12
2023-05-07T19:15:18.302Z,21.09
2023-05-07T19:17:58.001Z,21.11
2023-05-07T19:20:30.168Z,21.12
2023-05-07T19:23:06.495Z,21.12
2023-05-07T19:25:43.865Z,21.12
2023-05-07T19:28:14.246Z,21.08
2023-05-07T19:30:45.772Z,21.07
2023-05-07T19:33:20.126Z,21.08
2023-05-07T19:36:01.722Z,21.06
2023-05-07T19:38:33.170Z,21.11
2023-05-07T19:43:58.114Z,21.13
2023-05-07T19:46:47.212Z,21.12
2023-05-07T19:49:20.496Z,21.15
2023-05-07T19:52:16.150Z,21.13
2023-05-07T19:55:05.089Z,21.16
2023-05-07T19:57:33.376Z,21.18
2023-05-07T20:00:08.241Z,21.19
2023-05-07T20:02:47.838Z,21.18
2023-05-07T20:05:19.208Z,21.20
2023-05-07T20:08:07.701Z,21.20
2023-05-07T20:11:14.900Z,21.20
2023-05-07T20:16:38.321Z,21.21
2023-05-07T20:19:07.367Z,21.19
2023-05-07T20:21:35.149Z,21.17
2023-05-07T20:24:02.761Z,21.16
2023-05-07T20:26:33.560Z,21.18
2023-05-07T20:29:04.056Z,21.17
2023-05-07T20:31:47.320Z,21.17
2023-05-07T20:34:16.392Z,21.14
2023-05-07T20:36:47.620Z,21.15
2023-05-07T20:39:18.913Z,21.15
2023-05-07T20:41:48.265Z,21.13
2023-05-07T20:44:32.417Z,21.12
2023-05-07T20:47:08.268Z,21.10
2023-05-07T20:49:35.229Z,21.09
2023-05-07T20:52:05.937Z,21.08
2023-05-07T20:54:48.689Z,21.07
2023-05-07T20:57:20.280Z,21.05
2023-05-07T20:59:48.680Z,21.04
2023-05-07T21:02:20.954Z,21.04
2023-05-07T21:04:52.203Z,21.02
2023-05-07T21:07:29.074Z,21.02
2023-05-07T21:09:57.890Z,21.02
2023-05-07T21:12:29.226Z,21.00
2023-05-07T21:14:57.695Z,21.01
2023-05-07T21:17:28.230Z,20.99
2023-05-07T21:19:55.941Z,21.00
2023-05-07T21:22:23.572Z,20.98
2023-05-07T21:24:53.890Z,20.99
2023-05-07T21:27:27.413Z,20.98
2023-05-07T21:30:05.614Z,20.97
2023-05-07T21:32:33.366Z,20.97
2023-05-07T21:35:07.130Z,20.95
2023-05-07T21:37:40.387Z,20.93
2023-05-07T21:40:18.797Z,20.93
2023-05-07T21:42:48.339Z,20.94
2023-05-07T21:45:17.675Z,20.92
2023-05-07T21:47:48.211Z,20.92
2023-05-07T21:50:23.474Z,20.90
2023-05-07T21:52:55.775Z,20.89
2023-05-07T21:55:30.912Z,20.89
2023-05-07T21:58:10.547Z,20.89
2023-05-07T22:00:42.930Z,20.87
2023-05-07T22:03:16.122Z,20.87
2023-05-07T22:05:45.520Z,20.86
2023-05-07T22:08:15.598Z,20.86
2023-05-07T22:10:45.880Z,20.87
2023-05-07T22:13:16.408Z,20.84
2023-05-07T22:15:56.688Z,20.84
2023-05-07T22:18:25.163Z,20.84
2023-05-07T22:20:58.177Z,20.85
2023-05-07T22:23:31.193Z,20.85
2023-05-07T22:26:02.500Z,20.84
2023-05-07T22:28:37.726Z,20.84
2023-05-07T22:31:07.778Z,20.84
2023-05-07T22:33:41.165Z,20.83
2023-05-07T22:36:12.542Z,20.80
2023-05-07T22:38:44.024Z,20.80
2023-05-07T22:41:11.175Z,20.80
2023-05-07T22:43:38.693Z,20.80
2023-05-07T22:46:09.014Z,20.80
2023-05-07T22:48:39.364Z,20.79
2023-05-07T22:51:16.415Z,20.78
2023-05-07T22:53:45.894Z,20.79
2023-05-07T22:56:17.472Z,20.80
2023-05-07T22:58:48.072Z,20.79
2023-05-07T23:01:23.202Z,20.80
2023-05-07T23:03:53.488Z,20.78
2023-05-07T23:06:25.555Z,20.78
2023-05-07T23:08:58.256Z,20.76
2023-05-07T23:11:32.429Z,20.78
2023-05-07T23:13:59.820Z,20.78
2023-05-07T23:16:30.938Z,20.76
2023-05-07T23:19:03.993Z,20.76
2023-05-07T23:21:35.853Z,20.77
2023-05-07T23:24:08.275Z,20.74
2023-05-07T23:26:39.557Z,20.75
2023-05-07T23:29:11.420Z,20.75
2023-05-07T23:34:28.608Z,20.74
2023-05-07T23:36:58.991Z,20.72
2023-05-07T23:39:38.416Z,20.69
2023-05-07T23:42:09.183Z,20.70
2023-05-07T23:44:43.392Z,20.72
2023-05-07T23:47:14.340Z,20.72
2023-05-07T23:49:43.678Z,20.73
2023-05-07T23:52:21.186Z,20.70
2023-05-07T23:54:52.133Z,20.69
2023-05-07T23:57:29.115Z,20.70
2023-05-07T23:59:57.143Z,20.69
